Time;durP1;ratioP1;P1;durP2;ratioP2;P2;SDS_P1;SDS_P2;PMS_P1;PMS_P2;Temp;Humidity;BMP_temperature;BMP_pressure;BME280_temperature;BME280_humidity;BME280_pressure;Samples;Min_cycle;Max_cycle;Signal;HPM_P1;HPM_P2
2022/06/05 00:01:22;;;;;;;12.75;6.88;;;;;;;;;;5002688;28;20588;-67
2022/06/05 00:03:58;;;;;;;10.35;6.25;;;;;;;;;;5002133;28;20235;-66
2022/06/05 00:06:30;;;;;;;12.80;6.50;;;;;;;;;;5002296;28;20698;-66
2022/06/05 00:09:00;;;;;;;10.02;6.45;;;;;;;;;;4980357;28;20209;-66
2022/06/05 00:11:25;;;;;;;12.80;6.30;;;;;;;;;;4981239;28;20224;-66
2022/06/05 00:13:52;;;;;;;8.95;6.35;;;;;;;;;;4994805;28;20216;-67
2022/06/05 00:16:18;;;;;;;13.05;6.85;;;;;;;;;;5005615;28;20292;-66
2022/06/05 00:18:45;;;;;;;13.00;6.60;;;;;;;;;;5017675;28;20286;-66
2022/06/05 00:21:10;;;;;;;13.35;6.95;;;;;;;;;;5017045;28;20208;-66
2022/06/05 00:23:36;;;;;;;12.38;6.50;;;;;;;;;;5002014;28;20247;-66
2022/06/05 00:26:09;;;;;;;13.35;6.88;;;;;;;;;;5002184;28;20208;-65
2022/06/05 00:28:37;;;;;;;13.68;7.10;;;;;;;;;;5017221;28;20216;-66
2022/06/05 00:31:11;;;;;;;9.52;6.28;;;;;;;;;;4997078;28;20214;-66
2022/06/05 00:33:37;;;;;;;13.88;7.50;;;;;;;;;;4995519;28;20213;-66
2022/06/05 00:36:07;;;;;;;12.00;6.90;;;;;;;;;;4992480;28;20216;-65
2022/06/05 00:38:36;;;;;;;12.55;6.97;;;;;;;;;;5010670;28;20610;-66
2022/06/05 00:41:22;;;;;;;10.38;7.20;;;;;;;;;;4995273;28;20219;-65
2022/06/05 00:43:47;;;;;;;9.85;7.03;;;;;;;;;;5001663;28;20256;-67
2022/06/05 00:46:13;;;;;;;12.07;7.30;;;;;;;;;;4993026;28;20283;-67
2022/06/05 00:48:39;;;;;;;10.95;7.60;;;;;;;;;;5011917;28;20217;-66
2022/06/05 00:51:04;;;;;;;13.95;7.00;;;;;;;;;;4982091;28;20209;-66
2022/06/05 00:53:29;;;;;;;11.57;7.70;;;;;;;;;;4996321;28;20233;-66
2022/06/05 00:55:54;;;;;;;12.27;7.53;;;;;;;;;;4975282;28;20209;-66
2022/06/05 00:58:20;;;;;;;13.70;6.93;;;;;;;;;;4986095;28;21129;-66
2022/06/05 01:00:47;;;;;;;11.13;7.30;;;;;;;;;;4996921;28;20595;-66
2022/06/05 01:03:12;;;;;;;13.70;8.10;;;;;;;;;;5000624;28;20694;-66
2022/06/05 01:05:38;;;;;;;13.15;7.72;;;;;;;;;;4990436;28;20213;-66
2022/06/05 01:08:04;;;;;;;12.10;7.78;;;;;;;;;;4998695;28;20228;-66
2022/06/05 01:10:48;;;;;;;11.82;7.93;;;;;;;;;;4989265;28;20271;-66
2022/06/05 01:13:26;;;;;;;11.98;7.97;;;;;;;;;;4990988;28;20212;-65
2022/06/05 01:16:02;;;;;;;12.07;7.63;;;;;;;;;;5011457;28;20208;-66
2022/06/05 01:18:27;;;;;;;13.00;8.07;;;;;;;;;;5009267;28;20277;-66
2022/06/05 01:21:05;;;;;;;12.38;8.57;;;;;;;;;;4993276;28;20212;-66
2022/06/05 01:23:33;;;;;;;20.98;8.60;;;;;;;;;;4995358;28;20318;-65
2022/06/05 01:26:01;;;;;;;13.80;9.10;;;;;;;;;;4994446;28;20299;-66
2022/06/05 01:28:28;;;;;;;13.75;8.70;;;;;;;;;;5001045;28;20614;-66
2022/06/05 01:30:55;;;;;;;14.88;8.65;;;;;;;;;;5016191;28;20295;-66
2022/06/05 01:33:22;;;;;;;11.90;7.93;;;;;;;;;;4981982;28;20266;-66
2022/06/05 01:35:50;;;;;;;14.75;8.55;;;;;;;;;;5015859;28;20702;-66
2022/06/05 01:38:17;;;;;;;12.55;8.68;;;;;;;;;;4988833;28;20897;-66
2022/06/05 01:40:45;;;;;;;13.45;8.48;;;;;;;;;;4990126;28;20205;-66
2022/06/05 01:43:11;;;;;;;14.07;8.90;;;;;;;;;;4974280;28;20402;-66
2022/06/05 01:45:39;;;;;;;14.48;8.90;;;;;;;;;;4979021;28;20209;-66
2022/06/05 01:48:05;;;;;;;11.18;8.38;;;;;;;;;;5014646;28;20212;-65
2022/06/05 01:50:31;;;;;;;14.05;8.73;;;;;;;;;;4991210;28;20220;-66
2022/06/05 01:53:01;;;;;;;13.25;8.88;;;;;;;;;;5004569;28;20225;-66
2022/06/05 01:55:28;;;;;;;14.65;9.40;;;;;;;;;;4996852;28;20275;-66
2022/06/05 01:57:54;;;;;;;14.18;9.40;;;;;;;;;;5015527;28;20322;-66
2022/06/05 02:00:19;;;;;;;11.15;8.90;;;;;;;;;;5015891;28;20299;-66
2022/06/05 02:02:48;;;;;;;14.43;9.45;;;;;;;;;;4993874;28;20685;-66
2022/06/05 02:05:14;;;;;;;16.15;9.93;;;;;;;;;;4972656;28;20213;-66
2022/06/05 02:07:47;;;;;;;14.57;9.20;;;;;;;;;;4974770;28;20209;-65
2022/06/05 02:10:13;;;;;;;16.23;9.20;;;;;;;;;;4999030;28;20217;-66
2022/06/05 02:12:38;;;;;;;14.57;9.98;;;;;;;;;;4982174;28;20225;-66
2022/06/05 02:15:04;;;;;;;12.48;9.23;;;;;;;;;;4981825;28;20783;-65
2022/06/05 02:17:29;;;;;;;14.30;9.95;;;;;;;;;;4981532;28;20217;-66
2022/06/05 02:19:54;;;;;;;15.65;10.02;;;;;;;;;;4989931;28;20217;-66
2022/06/05 02:22:20;;;;;;;14.02;9.75;;;;;;;;;;4998089;28;20227;-66
2022/06/05 02:24:45;;;;;;;14.93;9.98;;;;;;;;;;4993348;28;20233;-66
2022/06/05 02:27:10;;;;;;;15.70;10.05;;;;;;;;;;4973910;28;20307;-65
2022/06/05 02:29:36;;;;;;;15.45;10.32;;;;;;;;;;4991040;28;20245;-66
2022/06/05 02:32:08;;;;;;;16.08;10.10;;;;;;;;;;4976856;28;20511;-64
2022/06/05 02:34:34;;;;;;;15.40;10.05;;;;;;;;;;5016343;28;20236;-66
2022/06/05 02:37:09;;;;;;;16.88;11.13;;;;;;;;;;4992934;28;20232;-66
2022/06/05 02:39:54;;;;;;;14.95;10.55;;;;;;;;;;4994468;28;20222;-65
2022/06/05 02:42:29;;;;;;;17.80;11.25;;;;;;;;;;5003582;28;20722;-66
2022/06/05 02:45:09;;;;;;;17.23;10.85;;;;;;;;;;5001211;28;20646;-66
2022/06/05 02:47:36;;;;;;;16.33;10.68;;;;;;;;;;4989047;28;20275;-66
2022/06/05 02:50:02;;;;;;;15.07;10.82;;;;;;;;;;4984929;28;20672;-65
2022/06/05 02:52:29;;;;;;;15.60;12.10;;;;;;;;;;4977589;28;20224;-66
2022/06/05 02:54:56;;;;;;;18.23;11.93;;;;;;;;;;5007878;28;20262;-65
2022/06/05 02:57:22;;;;;;;18.88;11.02;;;;;;;;;;5003640;28;20228;-66
2022/06/05 02:59:47;;;;;;;15.95;10.82;;;;;;;;;;5002586;28;20280;-66
2022/06/05 03:04:56;;;;;;;21.48;12.68;;;;;;;;;;4992057;28;20231;-66
2022/06/05 03:07:22;;;;;;;15.70;11.18;;;;;;;;;;4983961;28;20217;-66
2022/06/05 03:09:47;;;;;;;20.67;12.40;;;;;;;;;;4991749;28;20225;-66
2022/06/05 03:12:13;;;;;;;19.02;11.70;;;;;;;;;;4995529;28;20618;-66
2022/06/05 03:14:38;;;;;;;18.13;12.13;;;;;;;;;;4989859;28;20225;-66
2022/06/05 03:17:03;;;;;;;20.52;11.88;;;;;;;;;;4990149;28;20209;-65
2022/06/05 03:19:29;;;;;;;18.08;11.10;;;;;;;;;;5002650;28;20216;-65
2022/06/05 03:21:54;;;;;;;18.15;12.10;;;;;;;;;;4995091;28;20217;-66
2022/06/05 03:24:19;;;;;;;18.35;12.63;;;;;;;;;;4983936;28;20656;-65
2022/06/05 03:26:45;;;;;;;18.02;12.82;;;;;;;;;;4988034;28;20220;-66
2022/06/05 03:29:11;;;;;;;17.10;11.48;;;;;;;;;;4993784;28;20221;-65
2022/06/05 03:31:36;;;;;;;15.48;11.52;;;;;;;;;;4984042;28;20228;-64
2022/06/05 03:34:01;;;;;;;16.50;12.25;;;;;;;;;;5001355;28;20328;-64
2022/06/05 03:36:27;;;;;;;17.70;12.18;;;;;;;;;;4981618;28;20221;-65
2022/06/05 03:38:52;;;;;;;16.40;11.57;;;;;;;;;;4977318;28;20261;-65
2022/06/05 03:41:17;;;;;;;16.58;11.85;;;;;;;;;;4994301;28;20328;-65
2022/06/05 03:43:43;;;;;;;18.35;11.98;;;;;;;;;;4987038;28;20233;-65
2022/06/05 03:46:09;;;;;;;18.25;12.57;;;;;;;;;;5013022;28;20255;-65
2022/06/05 03:48:35;;;;;;;16.85;12.48;;;;;;;;;;4983271;28;21020;-65
2022/06/05 03:51:04;;;;;;;18.08;12.90;;;;;;;;;;4984264;28;20221;-64
2022/06/05 03:53:30;;;;;;;18.98;11.88;;;;;;;;;;5004950;28;20367;-64
2022/06/05 03:55:55;;;;;;;16.67;12.52;;;;;;;;;;4985832;28;20311;-65
2022/06/05 03:58:20;;;;;;;21.92;13.32;;;;;;;;;;4987587;28;20239;-65
2022/06/05 04:00:45;;;;;;;17.75;12.13;;;;;;;;;;4995386;28;20590;-64
2022/06/05 04:03:11;;;;;;;22.73;13.82;;;;;;;;;;4986050;28;20267;-64
2022/06/05 04:05:36;;;;;;;19.75;13.55;;;;;;;;;;4999173;28;20223;-64
2022/06/05 04:08:01;;;;;;;18.80;12.57;;;;;;;;;;4999597;28;20213;-64
2022/06/05 04:10:27;;;;;;;17.98;12.93;;;;;;;;;;4982717;28;20236;-64
2022/06/05 04:12:52;;;;;;;18.00;13.10;;;;;;;;;;4983332;28;20320;-64
2022/06/05 04:15:18;;;;;;;17.73;13.20;;;;;;;;;;4987930;28;20691;-64
2022/06/05 04:17:43;;;;;;;19.58;12.63;;;;;;;;;;4998945;28;20651;-65
2022/06/05 04:20:10;;;;;;;20.17;12.30;;;;;;;;;;4989417;28;20722;-64
2022/06/05 04:22:35;;;;;;;20.52;13.70;;;;;;;;;;4980850;28;20220;-65
2022/06/05 04:25:01;;;;;;;20.58;13.27;;;;;;;;;;4978529;28;20217;-64
2022/06/05 04:27:27;;;;;;;17.50;12.43;;;;;;;;;;4988996;28;20223;-64
2022/06/05 04:29:52;;;;;;;18.35;12.98;;;;;;;;;;4999565;28;20287;-64
2022/06/05 04:32:17;;;;;;;19.13;12.18;;;;;;;;;;4991181;28;20583;-65
2022/06/05 04:34:43;;;;;;;15.20;12.15;;;;;;;;;;4984427;28;20225;-64
2022/06/05 04:37:08;;;;;;;15.50;11.75;;;;;;;;;;4997414;28;20333;-64
2022/06/05 04:39:33;;;;;;;16.23;12.45;;;;;;;;;;4982692;28;20212;-65
2022/06/05 04:41:59;;;;;;;16.73;12.40;;;;;;;;;;4994313;28;20951;-65
2022/06/05 04:44:24;;;;;;;19.40;12.48;;;;;;;;;;4980191;28;20229;-65
2022/06/05 04:46:50;;;;;;;17.92;12.30;;;;;;;;;;4988135;28;20227;-65
2022/06/05 04:49:15;;;;;;;17.25;11.90;;;;;;;;;;5011798;28;20225;-65
2022/06/05 04:51:40;;;;;;;19.90;13.05;;;;;;;;;;4989962;28;20212;-65
2022/06/05 04:54:06;;;;;;;17.85;12.63;;;;;;;;;;4983946;28;20614;-65
2022/06/05 04:56:32;;;;;;;19.02;12.90;;;;;;;;;;4983187;28;20209;-65
2022/06/05 04:58:57;;;;;;;18.45;12.65;;;;;;;;;;4982494;28;20275;-65
2022/06/05 05:01:24;;;;;;;16.95;12.15;;;;;;;;;;4982154;28;20279;-64
2022/06/05 05:03:53;;;;;;;20.35;12.63;;;;;;;;;;4977456;28;20283;-65
2022/06/05 05:06:18;;;;;;;16.38;12.35;;;;;;;;;;4992894;28;20727;-65
2022/06/05 05:08:43;;;;;;;19.85;12.60;;;;;;;;;;4994098;28;20216;-65
2022/06/05 05:11:09;;;;;;;17.95;11.98;;;;;;;;;;4989737;28;20649;-64
2022/06/05 05:13:34;;;;;;;19.05;12.18;;;;;;;;;;4991809;28;20213;-66
2022/06/05 05:15:59;;;;;;;17.88;12.50;;;;;;;;;;4984619;28;20638;-69
2022/06/05 05:18:25;;;;;;;17.05;12.63;;;;;;;;;;4982623;28;20225;-67
2022/06/05 05:20:50;;;;;;;18.08;11.98;;;;;;;;;;4982026;28;20263;-66
2022/06/05 05:23:16;;;;;;;19.75;13.10;;;;;;;;;;5000728;28;20990;-65
2022/06/05 05:25:41;;;;;;;16.40;11.75;;;;;;;;;;4998888;28;20216;-66
2022/06/05 05:28:06;;;;;;;17.63;13.43;;;;;;;;;;4993615;28;20266;-68
2022/06/05 05:30:33;;;;;;;18.05;11.98;;;;;;;;;;4994177;28;20408;-74
2022/06/05 05:32:58;;;;;;;16.83;12.85;;;;;;;;;;4979713;28;20212;-68
2022/06/05 05:35:24;;;;;;;17.40;12.35;;;;;;;;;;4981479;28;20233;-69
2022/06/05 05:37:49;;;;;;;18.90;11.82;;;;;;;;;;4996769;28;20627;-71
2022/06/05 05:42:58;;;;;;;15.05;11.57;;;;;;;;;;4982373;28;20220;-73
2022/06/05 05:45:24;;;;;;;16.00;11.85;;;;;;;;;;4984152;28;20221;-65
2022/06/05 05:47:50;;;;;;;17.13;11.30;;;;;;;;;;5000961;28;20213;-65
2022/06/05 05:50:16;;;;;;;14.85;11.50;;;;;;;;;;4998461;28;20251;-62
2022/06/05 05:52:41;;;;;;;14.75;11.05;;;;;;;;;;4991623;28;20217;-65
2022/06/05 05:55:10;;;;;;;15.00;11.52;;;;;;;;;;4991094;28;20616;-65
2022/06/05 05:57:35;;;;;;;17.45;11.60;;;;;;;;;;4991811;28;20228;-65
2022/06/05 06:00:00;;;;;;;15.82;11.93;;;;;;;;;;4991414;28;20213;-65
2022/06/05 06:02:26;;;;;;;17.17;11.32;;;;;;;;;;4991133;28;20296;-65
2022/06/05 06:04:51;;;;;;;16.38;11.20;;;;;;;;;;4991215;28;20217;-66
2022/06/05 06:07:17;;;;;;;17.10;11.35;;;;;;;;;;4989921;28;20227;-65
2022/06/05 06:09:42;;;;;;;15.65;11.10;;;;;;;;;;4992394;28;20264;-65
2022/06/05 06:12:08;;;;;;;18.63;11.32;;;;;;;;;;4995261;28;20362;-64
2022/06/05 06:14:34;;;;;;;16.17;11.40;;;;;;;;;;4997371;28;20225;-65
2022/06/05 06:16:59;;;;;;;16.27;11.20;;;;;;;;;;4994886;28;20209;-65
2022/06/05 06:19:24;;;;;;;14.35;10.43;;;;;;;;;;4993949;28;20244;-65
2022/06/05 06:21:50;;;;;;;14.13;10.82;;;;;;;;;;4995133;28;20221;-64
2022/06/05 06:24:15;;;;;;;14.02;10.65;;;;;;;;;;4994286;28;20767;-65
2022/06/05 06:26:40;;;;;;;14.85;10.52;;;;;;;;;;4995313;28;20239;-64
2022/06/05 06:29:06;;;;;;;14.20;11.45;;;;;;;;;;4992945;28;20461;-72
2022/06/05 06:31:31;;;;;;;13.80;10.55;;;;;;;;;;5000325;28;20212;-70
2022/06/05 06:33:56;;;;;;;12.77;9.88;;;;;;;;;;5014407;28;20228;-70
2022/06/05 06:36:22;;;;;;;16.42;10.40;;;;;;;;;;5013813;28;20588;-69
2022/06/05 06:38:47;;;;;;;20.85;10.18;;;;;;;;;;5014341;28;20715;-70
2022/06/05 06:41:14;;;;;;;11.70;9.95;;;;;;;;;;5014196;28;20592;-70
2022/06/05 06:43:41;;;;;;;15.82;9.90;;;;;;;;;;5008884;28;20303;-70
2022/06/05 06:46:07;;;;;;;13.35;10.20;;;;;;;;;;4993990;28;20209;-68
2022/06/05 06:48:32;;;;;;;12.00;9.77;;;;;;;;;;5019602;28;20343;-69
2022/06/05 06:50:58;;;;;;;14.52;9.57;;;;;;;;;;5019265;28;20287;-70
2022/06/05 06:53:23;;;;;;;12.18;9.18;;;;;;;;;;5013626;28;20723;-70
2022/06/05 06:55:49;;;;;;;13.45;9.48;;;;;;;;;;5028005;28;20346;-70
2022/06/05 06:58:14;;;;;;;13.32;9.30;;;;;;;;;;5021153;28;20225;-70
2022/06/05 07:00:39;;;;;;;11.43;9.45;;;;;;;;;;5014091;28;20291;-70
2022/06/05 07:03:05;;;;;;;11.45;9.88;;;;;;;;;;5013370;28;20221;-69
2022/06/05 07:05:30;;;;;;;12.75;8.70;;;;;;;;;;5013359;28;20244;-69
2022/06/05 07:07:56;;;;;;;10.98;9.25;;;;;;;;;;5013770;28;20208;-69
2022/06/05 07:10:21;;;;;;;12.85;9.35;;;;;;;;;;5013638;28;20217;-69
2022/06/05 07:12:47;;;;;;;13.82;8.55;;;;;;;;;;5012487;28;20224;-69
2022/06/05 07:15:13;;;;;;;11.75;8.88;;;;;;;;;;5013300;28;20271;-69
2022/06/05 07:17:38;;;;;;;10.13;8.07;;;;;;;;;;5013678;28;20295;-70
2022/06/05 07:20:04;;;;;;;12.48;8.63;;;;;;;;;;5012681;28;20285;-69
2022/06/05 07:22:29;;;;;;;12.13;8.30;;;;;;;;;;5012087;28;20220;-69
2022/06/05 07:24:54;;;;;;;11.77;8.65;;;;;;;;;;5013937;28;20320;-69
2022/06/05 07:27:19;;;;;;;11.95;8.52;;;;;;;;;;5013043;28;20209;-70
2022/06/05 07:29:45;;;;;;;10.93;8.27;;;;;;;;;;5013661;28;20239;-70
2022/06/05 07:32:11;;;;;;;12.25;8.63;;;;;;;;;;5012887;28;20204;-70
2022/06/05 07:34:36;;;;;;;11.05;8.55;;;;;;;;;;5012742;28;20584;-70
2022/06/05 07:37:02;;;;;;;13.85;8.40;;;;;;;;;;5011613;28;20295;-71
2022/06/05 07:39:29;;;;;;;12.68;9.43;;;;;;;;;;5012251;28;20222;-71
2022/06/05 07:41:54;;;;;;;12.38;8.75;;;;;;;;;;5012763;28;20576;-71
2022/06/05 07:44:19;;;;;;;12.13;8.48;;;;;;;;;;5012489;28;20213;-71
2022/06/05 07:46:45;;;;;;;12.30;8.40;;;;;;;;;;5012186;28;20204;-71
2022/06/05 07:49:10;;;;;;;14.30;8.60;;;;;;;;;;5011917;28;20204;-73
2022/06/05 07:54:27;;;;;;;11.93;8.70;;;;;;;;;;5009484;28;20748;-73
2022/06/05 07:56:52;;;;;;;9.95;8.15;;;;;;;;;;5012346;28;20627;-71
2022/06/05 07:59:18;;;;;;;9.38;8.10;;;;;;;;;;5009273;28;20216;-72
2022/06/05 08:01:43;;;;;;;11.48;8.52;;;;;;;;;;5011750;28;20266;-72
2022/06/05 08:04:08;;;;;;;10.73;7.97;;;;;;;;;;5011505;28;20299;-70
2022/06/05 08:06:34;;;;;;;12.60;8.43;;;;;;;;;;5012545;28;20296;-74
2022/06/05 08:08:59;;;;;;;9.30;7.50;;;;;;;;;;5012155;28;20201;-73
2022/06/05 08:11:25;;;;;;;13.57;8.23;;;;;;;;;;5001960;28;20216;-69
2022/06/05 08:13:50;;;;;;;12.57;8.10;;;;;;;;;;5003512;28;20259;-70
2022/06/05 08:16:15;;;;;;;11.90;8.38;;;;;;;;;;5000321;28;20309;-72
2022/06/05 08:18:41;;;;;;;11.45;8.48;;;;;;;;;;5009505;28;20309;-72
2022/06/05 08:21:06;;;;;;;11.88;8.07;;;;;;;;;;5011536;28;20213;-71
2022/06/05 08:23:31;;;;;;;10.85;8.05;;;;;;;;;;5012120;28;20331;-71
2022/06/05 08:25:57;;;;;;;10.55;7.60;;;;;;;;;;5012687;28;20227;-69
2022/06/05 08:28:25;;;;;;;11.27;8.07;;;;;;;;;;5011214;28;20216;-70
2022/06/05 08:30:50;;;;;;;9.55;7.35;;;;;;;;;;5011662;28;20204;-70
2022/06/05 08:33:17;;;;;;;11.25;7.70;;;;;;;;;;5011204;28;20258;-68
2022/06/05 08:35:44;;;;;;;11.10;7.53;;;;;;;;;;5011873;28;20920;-70
2022/06/05 08:43:52;;;;;;;8.85;7.13;;;;;;;;;;5003909;28;20252;-68
2022/06/05 08:46:21;;;;;;;11.73;7.45;;;;;;;;;;4991842;28;20213;-70
2022/06/05 08:48:49;;;;;;;11.85;8.50;;;;;;;;;;4992596;28;20213;-69
2022/06/05 08:51:29;;;;;;;10.40;7.88;;;;;;;;;;4990323;28;20212;-70
2022/06/05 08:54:00;;;;;;;11.02;7.25;;;;;;;;;;4992034;28;20252;-70
2022/06/05 08:56:42;;;;;;;9.32;7.82;;;;;;;;;;4998617;28;20311;-69
2022/06/05 08:59:13;;;;;;;10.05;7.70;;;;;;;;;;4991179;28;20225;-70
2022/06/05 09:01:41;;;;;;;9.82;7.53;;;;;;;;;;4991327;28;20220;-70
2022/06/05 09:04:17;;;;;;;8.55;7.63;;;;;;;;;;4991057;28;20570;-70
2022/06/05 09:06:44;;;;;;;9.98;7.60;;;;;;;;;;4990569;28;20212;-71
2022/06/05 09:09:12;;;;;;;10.45;6.50;;;;;;;;;;4991601;28;20217;-71
2022/06/05 09:11:42;;;;;;;10.10;6.88;;;;;;;;;;4990805;28;20255;-70
2022/06/05 09:14:10;;;;;;;8.70;6.97;;;;;;;;;;4990351;28;20205;-72
2022/06/05 09:16:37;;;;;;;8.88;7.38;;;;;;;;;;4991002;28;20209;-73
2022/06/05 09:19:03;;;;;;;8.55;6.85;;;;;;;;;;4989572;28;20271;-73
2022/06/05 09:21:32;;;;;;;8.30;6.80;;;;;;;;;;4990207;28;20220;-72
2022/06/05 09:23:57;;;;;;;8.82;7.53;;;;;;;;;;4974407;28;20635;-74
2022/06/05 09:26:24;;;;;;;8.68;6.70;;;;;;;;;;4991210;28;20207;-74
2022/06/05 09:28:57;;;;;;;9.48;7.10;;;;;;;;;;4990600;28;20691;-73
2022/06/05 09:31:25;;;;;;;11.68;7.38;;;;;;;;;;4990244;28;20220;-72
2022/06/05 09:33:51;;;;;;;12.65;7.70;;;;;;;;;;5006030;28;20251;-71
2022/06/05 09:36:17;;;;;;;8.52;6.95;;;;;;;;;;4991989;28;20221;-71
2022/06/05 09:38:43;;;;;;;7.72;6.50;;;;;;;;;;4994785;28;20216;-70
2022/06/05 09:41:19;;;;;;;9.57;6.88;;;;;;;;;;5013277;28;20662;-71
2022/06/05 09:43:53;;;;;;;8.30;6.75;;;;;;;;;;4985439;28;20233;-70
2022/06/05 09:46:25;;;;;;;8.95;6.68;;;;;;;;;;4989126;28;20220;-70
2022/06/05 09:48:54;;;;;;;10.45;6.65;;;;;;;;;;4989884;28;20533;-69
2022/06/05 09:51:20;;;;;;;8.80;6.20;;;;;;;;;;5004639;28;20227;-70
2022/06/05 09:53:46;;;;;;;8.45;6.90;;;;;;;;;;5024201;28;20212;-70
2022/06/05 09:56:15;;;;;;;8.38;6.15;;;;;;;;;;5004956;28;20219;-71
2022/06/05 09:58:51;;;;;;;7.03;6.10;;;;;;;;;;4985879;28;20233;-70
2022/06/05 10:01:28;;;;;;;8.95;6.32;;;;;;;;;;4999247;28;20207;-70
2022/06/05 10:03:53;;;;;;;8.57;6.18;;;;;;;;;;5006685;28;20894;-70
2022/06/05 10:06:18;;;;;;;8.18;6.05;;;;;;;;;;5023036;28;20228;-70
2022/06/05 10:08:46;;;;;;;7.65;6.10;;;;;;;;;;4981703;28;20225;-70
2022/06/05 10:11:18;;;;;;;8.38;5.78;;;;;;;;;;4987615;28;20217;-70
2022/06/05 10:13:48;;;;;;;9.20;6.20;;;;;;;;;;4992454;28;20340;-70
2022/06/05 10:16:19;;;;;;;9.00;6.72;;;;;;;;;;5007889;28;20271;-70
2022/06/05 10:18:47;;;;;;;7.53;5.93;;;;;;;;;;5020461;28;20286;-71
2022/06/05 10:21:12;;;;;;;7.22;6.22;;;;;;;;;;5014837;28;20266;-71
2022/06/05 10:23:39;;;;;;;11.07;5.75;;;;;;;;;;5011973;28;20221;-72
2022/06/05 10:26:10;;;;;;;6.65;5.88;;;;;;;;;;4989539;28;20695;-71
2022/06/05 10:28:37;;;;;;;7.70;6.22;;;;;;;;;;4988141;28;20217;-74
2022/06/05 10:31:07;;;;;;;7.40;5.70;;;;;;;;;;4996077;28;20224;-72
2022/06/05 10:33:39;;;;;;;8.30;6.28;;;;;;;;;;5008770;28;20347;-70
2022/06/05 10:36:06;;;;;;;7.43;5.82;;;;;;;;;;5011191;28;20270;-72
2022/06/05 10:38:50;;;;;;;15.00;6.28;;;;;;;;;;4994410;28;20217;-70
2022/06/05 10:41:18;;;;;;;10.35;6.70;;;;;;;;;;5021047;28;20270;-76
2022/06/05 10:43:43;;;;;;;9.85;7.30;;;;;;;;;;5005010;28;20730;-74
2022/06/05 10:46:18;;;;;;;9.98;5.90;;;;;;;;;;5012613;28;20212;-73
2022/06/05 10:48:51;;;;;;;8.32;5.63;;;;;;;;;;5012937;28;20261;-72
2022/06/05 10:51:16;;;;;;;7.35;5.88;;;;;;;;;;5011292;28;20208;-70
2022/06/05 10:53:43;;;;;;;6.28;5.68;;;;;;;;;;5013969;28;20223;-72
2022/06/05 10:56:13;;;;;;;10.07;5.35;;;;;;;;;;5013600;28;20223;-75
2022/06/05 10:58:43;;;;;;;6.03;5.13;;;;;;;;;;5007523;28;20231;-74
2022/06/05 11:01:27;;;;;;;6.47;5.30;;;;;;;;;;5012341;28;20216;-73
2022/06/05 11:03:55;;;;;;;9.82;5.57;;;;;;;;;;5013184;28;20319;-71
2022/06/05 11:06:25;;;;;;;7.82;5.78;;;;;;;;;;5001287;28;20208;-73
2022/06/05 11:08:55;;;;;;;7.15;5.63;;;;;;;;;;4977491;28;20213;-72
2022/06/05 11:14:06;;;;;;;8.32;5.90;;;;;;;;;;4974139;28;20268;-72
2022/06/05 11:16:32;;;;;;;7.75;5.32;;;;;;;;;;4974702;28;20295;-72
2022/06/05 11:18:59;;;;;;;6.40;5.63;;;;;;;;;;5005367;28;20357;-71
2022/06/05 11:21:24;;;;;;;7.38;5.53;;;;;;;;;;4974145;28;20678;-72
2022/06/05 11:23:51;;;;;;;7.38;5.82;;;;;;;;;;4975039;28;20308;-72
2022/06/05 11:26:20;;;;;;;7.90;5.93;;;;;;;;;;5004647;28;20558;-72
2022/06/05 11:29:04;;;;;;;6.22;5.63;;;;;;;;;;4974628;28;20607;-73
2022/06/05 11:31:35;;;;;;;6.55;5.43;;;;;;;;;;5021094;28;20211;-74
2022/06/05 11:34:17;;;;;;;8.07;5.78;;;;;;;;;;5009897;28;20207;-67
2022/06/05 11:36:44;;;;;;;8.80;6.63;;;;;;;;;;5012205;28;20211;-73
2022/06/05 11:39:24;;;;;;;7.78;5.88;;;;;;;;;;5012983;28;20556;-74
2022/06/05 11:41:55;;;;;;;7.05;5.85;;;;;;;;;;5011917;28;20282;-73
2022/06/05 11:44:24;;;;;;;8.07;5.45;;;;;;;;;;4993527;28;20299;-75
2022/06/05 11:47:00;;;;;;;6.68;5.97;;;;;;;;;;4990735;28;20213;-74
2022/06/05 11:49:34;;;;;;;8.02;5.43;;;;;;;;;;4991442;28;20229;-72
2022/06/05 11:52:13;;;;;;;6.70;5.88;;;;;;;;;;4991955;28;20213;-72
2022/06/05 11:54:39;;;;;;;6.28;5.53;;;;;;;;;;4996434;28;20221;-73
2022/06/05 11:57:05;;;;;;;6.38;5.70;;;;;;;;;;4993242;28;20234;-72
2022/06/05 11:59:45;;;;;;;10.75;5.90;;;;;;;;;;4993086;28;20633;-73
2022/06/05 12:02:11;;;;;;;8.52;5.43;;;;;;;;;;4992831;28;20220;-75
2022/06/05 12:04:56;;;;;;;8.82;5.80;;;;;;;;;;4993097;28;20241;-74
2022/06/05 12:07:22;;;;;;;7.20;5.65;;;;;;;;;;4990440;28;20212;-75
2022/06/05 12:09:49;;;;;;;8.85;6.03;;;;;;;;;;4991813;28;20560;-75
2022/06/05 12:12:22;;;;;;;8.30;6.35;;;;;;;;;;4991491;28;20754;-74
2022/06/05 12:14:51;;;;;;;8.73;6.57;;;;;;;;;;4992189;28;20616;-72
2022/06/05 12:17:18;;;;;;;8.90;7.70;;;;;;;;;;4990007;28;20719;-73
2022/06/05 12:19:44;;;;;;;8.73;7.80;;;;;;;;;;4991047;28;20213;-75
2022/06/05 12:22:09;;;;;;;8.07;7.28;;;;;;;;;;4992196;28;20267;-76
2022/06/05 12:24:36;;;;;;;9.15;8.25;;;;;;;;;;4992508;28;20271;-74
2022/06/05 12:27:09;;;;;;;9.13;7.88;;;;;;;;;;4992564;28;20292;-73
2022/06/05 12:29:40;;;;;;;9.90;7.38;;;;;;;;;;4988993;28;20279;-77
2022/06/05 12:32:09;;;;;;;9.93;8.88;;;;;;;;;;5001241;28;20663;-75
2022/06/05 12:34:40;;;;;;;8.73;7.82;;;;;;;;;;5011248;28;20223;-72
2022/06/05 12:37:07;;;;;;;9.63;8.73;;;;;;;;;;4992838;28;20623;-71
2022/06/05 12:39:33;;;;;;;9.23;8.07;;;;;;;;;;4991415;28;20212;-73
2022/06/05 12:42:03;;;;;;;9.68;8.10;;;;;;;;;;4990636;28;20236;-72
2022/06/05 12:44:29;;;;;;;9.73;8.40;;;;;;;;;;4996771;28;20220;-74
2022/06/05 12:46:55;;;;;;;9.43;8.52;;;;;;;;;;5011228;28;20224;-74
2022/06/05 12:49:46;;;;;;;12.30;8.38;;;;;;;;;;5011098;28;20327;-76
2022/06/05 12:52:30;;;;;;;12.18;8.25;;;;;;;;;;5011021;28;20213;-76
2022/06/05 12:54:57;;;;;;;12.73;8.00;;;;;;;;;;5011809;28;20209;-74
2022/06/05 12:57:23;;;;;;;9.13;8.18;;;;;;;;;;5009979;28;20228;-74
2022/06/05 12:59:53;;;;;;;9.00;7.68;;;;;;;;;;5011602;28;20216;-73
2022/06/05 13:02:18;;;;;;;9.48;8.48;;;;;;;;;;5011262;28;20208;-74
2022/06/05 13:04:45;;;;;;;13.88;9.55;;;;;;;;;;5011112;28;20220;-75
2022/06/05 13:07:16;;;;;;;10.20;8.93;;;;;;;;;;5009967;28;20213;-74
2022/06/05 13:09:44;;;;;;;9.82;8.65;;;;;;;;;;5011870;28;20224;-77
2022/06/05 13:12:10;;;;;;;9.90;8.90;;;;;;;;;;5010872;28;20291;-80
2022/06/05 13:14:35;;;;;;;11.50;8.75;;;;;;;;;;5011528;28;20224;-82
2022/06/05 13:17:08;;;;;;;10.98;9.55;;;;;;;;;;5010915;28;20212;-78
2022/06/05 13:19:38;;;;;;;10.52;9.48;;;;;;;;;;5010108;28;20216;-80
2022/06/05 13:22:06;;;;;;;10.98;9.82;;;;;;;;;;5011287;28;20208;-83
2022/06/05 13:24:32;;;;;;;12.80;9.32;;;;;;;;;;5009844;28;20238;-80
2022/06/05 13:27:03;;;;;;;12.50;9.07;;;;;;;;;;5011552;28;20597;-81
2022/06/05 13:29:37;;;;;;;11.45;9.85;;;;;;;;;;4994024;28;20216;-81
2022/06/05 13:32:12;;;;;;;10.88;9.80;;;;;;;;;;5002144;28;20248;-81
2022/06/05 13:34:46;;;;;;;11.65;10.50;;;;;;;;;;4990856;28;20220;-82
2022/06/05 13:37:20;;;;;;;12.32;11.13;;;;;;;;;;4990748;28;20213;-78
2022/06/05 13:39:54;;;;;;;12.73;11.25;;;;;;;;;;4990179;28;20235;-83
2022/06/05 13:42:20;;;;;;;13.10;11.80;;;;;;;;;;4991885;28;20209;-80
2022/06/05 13:44:51;;;;;;;13.43;12.13;;;;;;;;;;5005415;28;20224;-82
2022/06/05 13:47:31;;;;;;;16.08;12.13;;;;;;;;;;5009107;28;20700;-84
2022/06/05 13:50:02;;;;;;;14.60;12.38;;;;;;;;;;5009704;28;20379;-86
2022/06/05 13:52:27;;;;;;;14.32;12.93;;;;;;;;;;4990777;28;20239;-86
2022/06/05 13:54:54;;;;;;;15.00;13.50;;;;;;;;;;4992146;28;20700;-80
2022/06/05 13:57:27;;;;;;;16.00;14.27;;;;;;;;;;4989775;28;20277;-84
2022/06/05 13:59:53;;;;;;;13.98;12.60;;;;;;;;;;4989985;28;20212;-80
2022/06/05 14:02:20;;;;;;;15.00;13.60;;;;;;;;;;4990214;28;20209;-84
2022/06/05 14:04:55;;;;;;;14.70;13.40;;;;;;;;;;5002452;28;20219;-74
2022/06/05 14:07:21;;;;;;;16.20;14.50;;;;;;;;;;5030010;28;20662;-62
2022/06/05 14:09:48;;;;;;;17.95;15.75;;;;;;;;;;5013990;28;20258;-62
2022/06/05 14:12:21;;;;;;;16.75;15.05;;;;;;;;;;5010726;28;20216;-61
2022/06/05 14:14:47;;;;;;;17.45;15.45;;;;;;;;;;5010779;28;20702;-61
2022/06/05 14:17:24;;;;;;;16.20;14.35;;;;;;;;;;5011028;28;20224;-62
2022/06/05 14:19:52;;;;;;;12.63;10.77;;;;;;;;;;5010710;28;20212;-61
2022/06/05 14:22:21;;;;;;;13.75;12.27;;;;;;;;;;5009909;28;20231;-61
2022/06/05 14:24:46;;;;;;;11.82;10.13;;;;;;;;;;5009838;28;20298;-61
2022/06/05 14:27:15;;;;;;;12.73;7.70;;;;;;;;;;5009634;28;20641;-61
2022/06/05 14:29:41;;;;;;;9.40;7.30;;;;;;;;;;5009496;28;20299;-61
2022/06/05 14:32:07;;;;;;;8.75;6.90;;;;;;;;;;5003689;28;20212;-61
2022/06/05 14:34:34;;;;;;;8.85;7.38;;;;;;;;;;4992993;28;20224;-61
2022/06/05 14:37:05;;;;;;;7.65;6.18;;;;;;;;;;4994886;28;20239;-61
2022/06/05 14:39:32;;;;;;;9.52;7.00;;;;;;;;;;5002993;28;20305;-61
2022/06/05 14:41:58;;;;;;;9.32;6.25;;;;;;;;;;4993416;28;20213;-61
2022/06/05 14:44:27;;;;;;;8.68;5.60;;;;;;;;;;5005506;28;20255;-61
2022/06/05 14:46:57;;;;;;;8.38;6.05;;;;;;;;;;5013230;28;20212;-61
2022/06/05 14:49:23;;;;;;;13.98;5.35;;;;;;;;;;5013080;28;20279;-61